sensor_id;sensor_type;location;lat;lon;timestamp;P1;durP1;ratioP1;P2;durP2;ratioP2
15408;SDS011;7803;48.130;13.788;2023-08-24T00:02:32;11.38;;;9.70;;
15408;SDS011;7803;48.130;13.788;2023-08-24T00:05:34;10.35;;;9.40;;
15408;SDS011;7803;48.130;13.788;2023-08-24T00:08:37;10.02;;;9.15;;
15408;SDS011;7803;48.130;13.788;2023-08-24T00:11:40;10.20;;;9.20;;
15408;SDS011;7803;48.130;13.788;2023-08-24T00:14:42;11.48;;;9.32;;
15408;SDS011;7803;48.130;13.788;2023-08-24T00:17:45;10.15;;;9.25;;
15408;SDS011;7803;48.130;13.788;2023-08-24T00:20:47;10.38;;;9.40;;
15408;SDS011;7803;48.130;13.788;2023-08-24T00:23:49;10.57;;;9.57;;
15408;SDS011;7803;48.130;13.788;2023-08-24T00:26:51;12.20;;;10.15;;
15408;SDS011;7803;48.130;13.788;2023-08-24T00:29:53;11.27;;;10.32;;
15408;SDS011;7803;48.130;13.788;2023-08-24T00:32:57;10.77;;;9.73;;
15408;SDS011;7803;48.130;13.788;2023-08-24T00:35:59;10.48;;;9.48;;
15408;SDS011;7803;48.130;13.788;2023-08-24T00:39:02;10.32;;;9.40;;
15408;SDS011;7803;48.130;13.788;2023-08-24T00:42:05;10.77;;;9.68;;
15408;SDS011;7803;48.130;13.788;2023-08-24T00:45:09;10.77;;;9.75;;
15408;SDS011;7803;48.130;13.788;2023-08-24T00:48:13;10.60;;;9.60;;
15408;SDS011;7803;48.130;13.788;2023-08-24T00:51:15;11.23;;;10.10;;
15408;SDS011;7803;48.130;13.788;2023-08-24T00:54:17;12.30;;;10.50;;
15408;SDS011;7803;48.130;13.788;2023-08-24T00:57:20;10.55;;;9.52;;
15408;SDS011;7803;48.130;13.788;2023-08-24T01:00:22;11.25;;;10.10;;
15408;SDS011;7803;48.130;13.788;2023-08-24T01:03:26;12.15;;;10.88;;
15408;SDS011;7803;48.130;13.788;2023-08-24T01:06:28;10.98;;;9.98;;
15408;SDS011;7803;48.130;13.788;2023-08-24T01:09:30;10.88;;;9.93;;
15408;SDS011;7803;48.130;13.788;2023-08-24T01:12:35;10.68;;;9.73;;
15408;SDS011;7803;48.130;13.788;2023-08-24T01:15:44;10.70;;;9.73;;
15408;SDS011;7803;48.130;13.788;2023-08-24T01:18:55;10.43;;;9.50;;
15408;SDS011;7803;48.130;13.788;2023-08-24T01:21:59;10.80;;;9.80;;
15408;SDS011;7803;48.130;13.788;2023-08-24T01:25:06;10.63;;;9.82;;
15408;SDS011;7803;48.130;13.788;2023-08-24T01:28:16;10.27;;;9.27;;
15408;SDS011;7803;48.130;13.788;2023-08-24T01:31:19;10.65;;;9.70;;
15408;SDS011;7803;48.130;13.788;2023-08-24T01:34:21;10.68;;;9.63;;
15408;SDS011;7803;48.130;13.788;2023-08-24T01:37:23;10.75;;;9.82;;
15408;SDS011;7803;48.130;13.788;2023-08-24T01:40:26;10.82;;;9.85;;
15408;SDS011;7803;48.130;13.788;2023-08-24T01:43:33;11.85;;;10.68;;
15408;SDS011;7803;48.130;13.788;2023-08-24T01:46:37;11.48;;;10.38;;
15408;SDS011;7803;48.130;13.788;2023-08-24T01:49:42;11.75;;;10.10;;
15408;SDS011;7803;48.130;13.788;2023-08-24T01:52:44;12.38;;;11.18;;
15408;SDS011;7803;48.130;13.788;2023-08-24T01:55:46;12.15;;;10.95;;
15408;SDS011;7803;48.130;13.788;2023-08-24T01:58:50;11.18;;;10.07;;
15408;SDS011;7803;48.130;13.788;2023-08-24T02:01:51;10.30;;;9.40;;
15408;SDS011;7803;48.130;13.788;2023-08-24T02:04:54;10.20;;;9.10;;
15408;SDS011;7803;48.130;13.788;2023-08-24T02:07:56;10.98;;;9.90;;
15408;SDS011;7803;48.130;13.788;2023-08-24T02:10:59;11.48;;;10.18;;
15408;SDS011;7803;48.130;13.788;2023-08-24T02:14:03;10.88;;;9.98;;
15408;SDS011;7803;48.130;13.788;2023-08-24T02:17:05;10.68;;;9.80;;
15408;SDS011;7803;48.130;13.788;2023-08-24T02:20:07;10.77;;;9.75;;
15408;SDS011;7803;48.130;13.788;2023-08-24T02:23:11;10.57;;;9.57;;
15408;SDS011;7803;48.130;13.788;2023-08-24T02:26:13;10.93;;;9.93;;
15408;SDS011;7803;48.130;13.788;2023-08-24T02:29:16;10.45;;;9.48;;
15408;SDS011;7803;48.130;13.788;2023-08-24T02:32:18;10.50;;;9.52;;
15408;SDS011;7803;48.130;13.788;2023-08-24T02:35:20;10.48;;;9.38;;
15408;SDS011;7803;48.130;13.788;2023-08-24T02:38:22;10.40;;;9.50;;
15408;SDS011;7803;48.130;13.788;2023-08-24T02:41:25;10.27;;;9.30;;
15408;SDS011;7803;48.130;13.788;2023-08-24T02:44:30;10.88;;;9.85;;
15408;SDS011;7803;48.130;13.788;2023-08-24T02:47:32;10.23;;;9.32;;
15408;SDS011;7803;48.130;13.788;2023-08-24T02:50:34;10.48;;;9.45;;
15408;SDS011;7803;48.130;13.788;2023-08-24T02:53:36;10.80;;;9.80;;
15408;SDS011;7803;48.130;13.788;2023-08-24T02:56:38;10.48;;;9.50;;
15408;SDS011;7803;48.130;13.788;2023-08-24T02:59:41;10.32;;;9.32;;
15408;SDS011;7803;48.130;13.788;2023-08-24T03:02:44;10.73;;;9.57;;
15408;SDS011;7803;48.130;13.788;2023-08-24T03:05:53;10.57;;;9.10;;
15408;SDS011;7803;48.130;13.788;2023-08-24T03:08:56;10.63;;;9.52;;
15408;SDS011;7803;48.130;13.788;2023-08-24T03:11:58;10.60;;;9.57;;
15408;SDS011;7803;48.130;13.788;2023-08-24T03:15:01;11.90;;;9.07;;
15408;SDS011;7803;48.130;13.788;2023-08-24T03:18:03;10.75;;;9.65;;
15408;SDS011;7803;48.130;13.788;2023-08-24T03:21:06;10.65;;;9.57;;
15408;SDS011;7803;48.130;13.788;2023-08-24T03:24:07;10.65;;;9.52;;
15408;SDS011;7803;48.130;13.788;2023-08-24T03:27:09;11.00;;;9.88;;
15408;SDS011;7803;48.130;13.788;2023-08-24T03:30:13;10.32;;;9.38;;
15408;SDS011;7803;48.130;13.788;2023-08-24T03:33:15;10.57;;;9.60;;
15408;SDS011;7803;48.130;13.788;2023-08-24T03:36:19;10.93;;;9.93;;
15408;SDS011;7803;48.130;13.788;2023-08-24T03:39:21;13.82;;;11.38;;
15408;SDS011;7803;48.130;13.788;2023-08-24T03:42:23;11.52;;;9.40;;
15408;SDS011;7803;48.130;13.788;2023-08-24T03:45:26;10.60;;;9.63;;
15408;SDS011;7803;48.130;13.788;2023-08-24T03:48:28;12.07;;;9.80;;
15408;SDS011;7803;48.130;13.788;2023-08-24T03:51:30;10.48;;;9.43;;
15408;SDS011;7803;48.130;13.788;2023-08-24T03:54:32;10.15;;;9.07;;
15408;SDS011;7803;48.130;13.788;2023-08-24T03:57:34;10.90;;;9.45;;
15408;SDS011;7803;48.130;13.788;2023-08-24T04:00:39;10.05;;;9.15;;
15408;SDS011;7803;48.130;13.788;2023-08-24T04:03:41;10.65;;;9.18;;
15408;SDS011;7803;48.130;13.788;2023-08-24T04:06:43;9.88;;;8.68;;
15408;SDS011;7803;48.130;13.788;2023-08-24T04:09:45;8.95;;;8.15;;
15408;SDS011;7803;48.130;13.788;2023-08-24T04:12:47;9.30;;;8.45;;
15408;SDS011;7803;48.130;13.788;2023-08-24T04:15:51;9.15;;;8.30;;
15408;SDS011;7803;48.130;13.788;2023-08-24T04:18:53;9.20;;;8.30;;
15408;SDS011;7803;48.130;13.788;2023-08-24T04:21:55;9.52;;;8.27;;
15408;SDS011;7803;48.130;13.788;2023-08-24T04:24:57;8.70;;;7.90;;
15408;SDS011;7803;48.130;13.788;2023-08-24T04:28:00;8.57;;;7.88;;
15408;SDS011;7803;48.130;13.788;2023-08-24T04:31:03;10.30;;;8.23;;
15408;SDS011;7803;48.130;13.788;2023-08-24T04:34:05;9.27;;;8.38;;
15408;SDS011;7803;48.130;13.788;2023-08-24T04:37:07;20.52;;;10.50;;
15408;SDS011;7803;48.130;13.788;2023-08-24T04:40:09;12.77;;;9.00;;
15408;SDS011;7803;48.130;13.788;2023-08-24T04:43:12;10.68;;;8.57;;
15408;SDS011;7803;48.130;13.788;2023-08-24T04:46:15;10.27;;;8.32;;
15408;SDS011;7803;48.130;13.788;2023-08-24T04:49:17;9.73;;;8.23;;
15408;SDS011;7803;48.130;13.788;2023-08-24T04:52:19;11.88;;;8.15;;
15408;SDS011;7803;48.130;13.788;2023-08-24T04:55:21;8.98;;;8.05;;
15408;SDS011;7803;48.130;13.788;2023-08-24T04:58:24;16.92;;;10.48;;
15408;SDS011;7803;48.130;13.788;2023-08-24T05:01:28;13.70;;;9.25;;
15408;SDS011;7803;48.130;13.788;2023-08-24T05:04:31;14.20;;;10.68;;
15408;SDS011;7803;48.130;13.788;2023-08-24T05:07:33;13.85;;;10.07;;
15408;SDS011;7803;48.130;13.788;2023-08-24T05:10:35;13.27;;;9.73;;
15408;SDS011;7803;48.130;13.788;2023-08-24T05:13:37;12.25;;;8.88;;
15408;SDS011;7803;48.130;13.788;2023-08-24T05:16:41;15.07;;;9.48;;
15408;SDS011;7803;48.130;13.788;2023-08-24T05:19:43;12.70;;;9.27;;
15408;SDS011;7803;48.130;13.788;2023-08-24T05:22:45;17.95;;;11.15;;
15408;SDS011;7803;48.130;13.788;2023-08-24T05:25:47;18.30;;;11.23;;
15408;SDS011;7803;48.130;13.788;2023-08-24T05:28:50;16.45;;;11.00;;
15408;SDS011;7803;48.130;13.788;2023-08-24T05:31:55;14.35;;;11.00;;
15408;SDS011;7803;48.130;13.788;2023-08-24T05:34:57;17.15;;;11.32;;
15408;SDS011;7803;48.130;13.788;2023-08-24T05:37:59;13.18;;;10.90;;
15408;SDS011;7803;48.130;13.788;2023-08-24T05:41:01;13.68;;;10.48;;
15408;SDS011;7803;48.130;13.788;2023-08-24T05:44:03;13.10;;;10.30;;
15408;SDS011;7803;48.130;13.788;2023-08-24T05:47:06;11.85;;;10.18;;
15408;SDS011;7803;48.130;13.788;2023-08-24T05:50:08;12.10;;;10.48;;
15408;SDS011;7803;48.130;13.788;2023-08-24T05:53:11;12.88;;;10.20;;
15408;SDS011;7803;48.130;13.788;2023-08-24T05:56:14;13.57;;;11.73;;
15408;SDS011;7803;48.130;13.788;2023-08-24T05:59:16;11.68;;;10.57;;
15408;SDS011;7803;48.130;13.788;2023-08-24T06:02:19;10.95;;;9.88;;
15408;SDS011;7803;48.130;13.788;2023-08-24T06:05:21;11.18;;;10.13;;
15408;SDS011;7803;48.130;13.788;2023-08-24T06:08:23;10.18;;;9.18;;
15408;SDS011;7803;48.130;13.788;2023-08-24T06:11:25;9.45;;;8.48;;
15408;SDS011;7803;48.130;13.788;2023-08-24T06:14:27;9.82;;;8.93;;
15408;SDS011;7803;48.130;13.788;2023-08-24T06:17:30;10.10;;;8.70;;
15408;SDS011;7803;48.130;13.788;2023-08-24T06:20:32;8.77;;;8.05;;
15408;SDS011;7803;48.130;13.788;2023-08-24T06:23:34;8.85;;;8.00;;
15408;SDS011;7803;48.130;13.788;2023-08-24T06:26:36;8.93;;;8.13;;
15408;SDS011;7803;48.130;13.788;2023-08-24T06:29:41;8.85;;;8.02;;
15408;SDS011;7803;48.130;13.788;2023-08-24T06:32:45;8.48;;;7.70;;
15408;SDS011;7803;48.130;13.788;2023-08-24T06:35:47;8.45;;;7.70;;
15408;SDS011;7803;48.130;13.788;2023-08-24T06:38:49;8.73;;;7.93;;
15408;SDS011;7803;48.130;13.788;2023-08-24T06:41:51;8.50;;;7.30;;
15408;SDS011;7803;48.130;13.788;2023-08-24T06:44:53;8.10;;;7.40;;
15408;SDS011;7803;48.130;13.788;2023-08-24T06:47:57;8.50;;;7.70;;
15408;SDS011;7803;48.130;13.788;2023-08-24T06:50:59;8.30;;;7.55;;
15408;SDS011;7803;48.130;13.788;2023-08-24T06:54:01;8.02;;;7.32;;
15408;SDS011;7803;48.130;13.788;2023-08-24T06:57:03;8.50;;;7.70;;
15408;SDS011;7803;48.130;13.788;2023-08-24T07:00:06;8.13;;;7.43;;
15408;SDS011;7803;48.130;13.788;2023-08-24T07:03:10;8.10;;;7.30;;
15408;SDS011;7803;48.130;13.788;2023-08-24T07:06:12;8.52;;;7.57;;
15408;SDS011;7803;48.130;13.788;2023-08-24T07:09:14;7.90;;;7.22;;
15408;SDS011;7803;48.130;13.788;2023-08-24T07:12:18;8.52;;;7.75;;
15408;SDS011;7803;48.130;13.788;2023-08-24T07:15:20;8.45;;;7.72;;
15408;SDS011;7803;48.130;13.788;2023-08-24T07:18:23;7.85;;;7.15;;
15408;SDS011;7803;48.130;13.788;2023-08-24T07:21:34;8.50;;;7.70;;
15408;SDS011;7803;48.130;13.788;2023-08-24T07:24:36;7.70;;;7.10;;
15408;SDS011;7803;48.130;13.788;2023-08-24T07:27:39;8.02;;;7.35;;
15408;SDS011;7803;48.130;13.788;2023-08-24T07:30:41;8.10;;;7.40;;
15408;SDS011;7803;48.130;13.788;2023-08-24T07:33:44;8.25;;;7.45;;
15408;SDS011;7803;48.130;13.788;2023-08-24T07:36:46;8.38;;;7.50;;
15408;SDS011;7803;48.130;13.788;2023-08-24T07:39:48;7.30;;;6.63;;
15408;SDS011;7803;48.130;13.788;2023-08-24T07:42:51;7.80;;;7.10;;
15408;SDS011;7803;48.130;13.788;2023-08-24T07:45:55;7.70;;;7.10;;
15408;SDS011;7803;48.130;13.788;2023-08-24T07:48:58;7.93;;;7.22;;
15408;SDS011;7803;48.130;13.788;2023-08-24T07:52:00;8.07;;;7.47;;
15408;SDS011;7803;48.130;13.788;2023-08-24T07:55:03;7.72;;;7.03;;
15408;SDS011;7803;48.130;13.788;2023-08-24T07:58:07;7.75;;;7.15;;
15408;SDS011;7803;48.130;13.788;2023-08-24T08:01:09;8.13;;;7.35;;
15408;SDS011;7803;48.130;13.788;2023-08-24T08:04:12;8.00;;;7.30;;
15408;SDS011;7803;48.130;13.788;2023-08-24T08:07:14;8.00;;;7.20;;
15408;SDS011;7803;48.130;13.788;2023-08-24T08:10:16;7.95;;;7.25;;
15408;SDS011;7803;48.130;13.788;2023-08-24T08:13:20;8.00;;;7.30;;
15408;SDS011;7803;48.130;13.788;2023-08-24T08:16:22;7.95;;;7.22;;
15408;SDS011;7803;48.130;13.788;2023-08-24T08:19:25;7.82;;;7.13;;
15408;SDS011;7803;48.130;13.788;2023-08-24T08:22:28;7.75;;;7.15;;
15408;SDS011;7803;48.130;13.788;2023-08-24T08:25:30;7.55;;;6.85;;
15408;SDS011;7803;48.130;13.788;2023-08-24T08:28:32;7.70;;;7.10;;
15408;SDS011;7803;48.130;13.788;2023-08-24T08:31:34;7.93;;;7.22;;
15408;SDS011;7803;48.130;13.788;2023-08-24T08:34:38;7.47;;;6.88;;
15408;SDS011;7803;48.130;13.788;2023-08-24T08:37:40;7.82;;;7.13;;
15408;SDS011;7803;48.130;13.788;2023-08-24T08:40:42;8.20;;;7.40;;
15408;SDS011;7803;48.130;13.788;2023-08-24T08:43:46;8.00;;;7.30;;
15408;SDS011;7803;48.130;13.788;2023-08-24T08:46:49;7.22;;;6.63;;
15408;SDS011;7803;48.130;13.788;2023-08-24T08:49:53;8.60;;;7.80;;
15408;SDS011;7803;48.130;13.788;2023-08-24T08:52:56;7.57;;;6.97;;
15408;SDS011;7803;48.130;13.788;2023-08-24T08:55:59;8.18;;;7.47;;
15408;SDS011;7803;48.130;13.788;2023-08-24T08:59:05;7.40;;;6.80;;
15408;SDS011;7803;48.130;13.788;2023-08-24T09:02:09;7.80;;;7.20;;
15408;SDS011;7803;48.130;13.788;2023-08-24T09:05:18;7.60;;;7.00;;
15408;SDS011;7803;48.130;13.788;2023-08-24T09:08:21;7.20;;;6.70;;
15408;SDS011;7803;48.130;13.788;2023-08-24T09:11:24;7.90;;;7.20;;
15408;SDS011;7803;48.130;13.788;2023-08-24T09:14:26;7.63;;;7.03;;
15408;SDS011;7803;48.130;13.788;2023-08-24T09:17:28;7.63;;;7.03;;
15408;SDS011;7803;48.130;13.788;2023-08-24T09:20:31;8.00;;;7.30;;
15408;SDS011;7803;48.130;13.788;2023-08-24T09:23:34;8.05;;;7.45;;
15408;SDS011;7803;48.130;13.788;2023-08-24T09:26:37;8.02;;;7.35;;
15408;SDS011;7803;48.130;13.788;2023-08-24T09:29:42;7.43;;;6.82;;
15408;SDS011;7803;48.130;13.788;2023-08-24T09:32:44;7.13;;;6.60;;
15408;SDS011;7803;48.130;13.788;2023-08-24T09:35:52;7.53;;;6.93;;
15408;SDS011;7803;48.130;13.788;2023-08-24T09:38:55;7.88;;;7.28;;
15408;SDS011;7803;48.130;13.788;2023-08-24T09:41:59;7.65;;;7.05;;
15408;SDS011;7803;48.130;13.788;2023-08-24T09:45:03;8.02;;;7.22;;
15408;SDS011;7803;48.130;13.788;2023-08-24T09:48:06;7.57;;;6.97;;
15408;SDS011;7803;48.130;13.788;2023-08-24T09:51:09;7.55;;;6.95;;
15408;SDS011;7803;48.130;13.788;2023-08-24T09:54:14;7.40;;;6.90;;
15408;SDS011;7803;48.130;13.788;2023-08-24T09:57:18;7.60;;;6.90;;
15408;SDS011;7803;48.130;13.788;2023-08-24T10:00:21;7.90;;;7.30;;
15408;SDS011;7803;48.130;13.788;2023-08-24T10:03:25;7.07;;;6.57;;
15408;SDS011;7803;48.130;13.788;2023-08-24T10:06:28;7.60;;;7.00;;
15408;SDS011;7803;48.130;13.788;2023-08-24T10:09:31;7.72;;;7.07;;
15408;SDS011;7803;48.130;13.788;2023-08-24T10:12:41;7.40;;;6.90;;
15408;SDS011;7803;48.130;13.788;2023-08-24T10:15:48;7.55;;;6.95;;
15408;SDS011;7803;48.130;13.788;2023-08-24T10:18:51;7.70;;;7.10;;
15408;SDS011;7803;48.130;13.788;2023-08-24T10:21:55;7.43;;;6.82;;
15408;SDS011;7803;48.130;13.788;2023-08-24T10:25:00;7.93;;;7.22;;
15408;SDS011;7803;48.130;13.788;2023-08-24T10:28:03;7.40;;;6.80;;
15408;SDS011;7803;48.130;13.788;2023-08-24T10:31:07;7.40;;;6.80;;
15408;SDS011;7803;48.130;13.788;2023-08-24T10:34:09;7.63;;;7.03;;
15408;SDS011;7803;48.130;13.788;2023-08-24T10:37:13;7.90;;;7.20;;
15408;SDS011;7803;48.130;13.788;2023-08-24T10:40:16;7.18;;;6.57;;
15408;SDS011;7803;48.130;13.788;2023-08-24T10:43:34;7.28;;;6.68;;
15408;SDS011;7803;48.130;13.788;2023-08-24T10:46:36;7.40;;;6.80;;
15408;SDS011;7803;48.130;13.788;2023-08-24T10:49:38;7.25;;;6.75;;
15408;SDS011;7803;48.130;13.788;2023-08-24T10:52:43;7.30;;;6.70;;
15408;SDS011;7803;48.130;13.788;2023-08-24T10:55:46;7.40;;;6.80;;
15408;SDS011;7803;48.130;13.788;2023-08-24T10:59:08;6.97;;;6.47;;
15408;SDS011;7803;48.130;13.788;2023-08-24T11:02:17;7.50;;;6.90;;
15408;SDS011;7803;48.130;13.788;2023-08-24T11:05:21;7.55;;;6.95;;
15408;SDS011;7803;48.130;13.788;2023-08-24T11:11:55;7.20;;;6.60;;
15408;SDS011;7803;48.130;13.788;2023-08-24T11:14:58;7.43;;;6.82;;
15408;SDS011;7803;48.130;13.788;2023-08-24T11:18:11;7.20;;;6.65;;
15408;SDS011;7803;48.130;13.788;2023-08-24T11:21:21;7.47;;;6.90;;
15408;SDS011;7803;48.130;13.788;2023-08-24T11:24:25;7.45;;;6.88;;
15408;SDS011;7803;48.130;13.788;2023-08-24T11:27:28;7.00;;;6.40;;
15408;SDS011;7803;48.130;13.788;2023-08-24T11:30:32;7.18;;;6.57;;
15408;SDS011;7803;48.130;13.788;2023-08-24T11:33:35;6.97;;;6.45;;
15408;SDS011;7803;48.130;13.788;2023-08-24T11:36:43;7.18;;;6.68;;
15408;SDS011;7803;48.130;13.788;2023-08-24T11:39:48;7.18;;;6.68;;
15408;SDS011;7803;48.130;13.788;2023-08-24T11:42:52;7.30;;;6.70;;
15408;SDS011;7803;48.130;13.788;2023-08-24T11:45:55;7.05;;;6.55;;
15408;SDS011;7803;48.130;13.788;2023-08-24T11:48:57;7.57;;;6.97;;
15408;SDS011;7803;48.130;13.788;2023-08-24T11:52:00;7.53;;;6.90;;
15408;SDS011;7803;48.130;13.788;2023-08-24T11:55:04;7.15;;;6.55;;
15408;SDS011;7803;48.130;13.788;2023-08-24T11:58:15;7.38;;;6.78;;
15408;SDS011;7803;48.130;13.788;2023-08-24T12:01:17;7.60;;;7.00;;
15408;SDS011;7803;48.130;13.788;2023-08-24T12:04:19;7.70;;;7.10;;
15408;SDS011;7803;48.130;13.788;2023-08-24T12:07:21;7.47;;;6.88;;
15408;SDS011;7803;48.130;13.788;2023-08-24T12:10:25;7.28;;;6.70;;
15408;SDS011;7803;48.130;13.788;2023-08-24T12:13:27;7.25;;;6.65;;
15408;SDS011;7803;48.130;13.788;2023-08-24T12:16:34;6.90;;;6.30;;
15408;SDS011;7803;48.130;13.788;2023-08-24T12:19:37;7.10;;;6.60;;
15408;SDS011;7803;48.130;13.788;2023-08-24T12:22:44;7.20;;;6.70;;
15408;SDS011;7803;48.130;13.788;2023-08-24T12:25:53;7.30;;;6.80;;
15408;SDS011;7803;48.130;13.788;2023-08-24T12:29:00;6.88;;;6.38;;
15408;SDS011;7803;48.130;13.788;2023-08-24T12:32:03;7.10;;;6.50;;
15408;SDS011;7803;48.130;13.788;2023-08-24T12:35:06;7.28;;;6.72;;
15408;SDS011;7803;48.130;13.788;2023-08-24T12:38:09;7.05;;;6.47;;
15408;SDS011;7803;48.130;13.788;2023-08-24T12:41:12;7.55;;;6.95;;
15408;SDS011;7803;48.130;13.788;2023-08-24T12:44:14;7.43;;;6.82;;
15408;SDS011;7803;48.130;13.788;2023-08-24T12:47:16;7.28;;;6.78;;
15408;SDS011;7803;48.130;13.788;2023-08-24T12:50:18;7.40;;;6.80;;
15408;SDS011;7803;48.130;13.788;2023-08-24T12:53:20;7.53;;;6.93;;
15408;SDS011;7803;48.130;13.788;2023-08-24T12:56:23;7.15;;;6.65;;
15408;SDS011;7803;48.130;13.788;2023-08-24T12:59:25;7.43;;;6.82;;
15408;SDS011;7803;48.130;13.788;2023-08-24T13:02:27;7.25;;;6.65;;
15408;SDS011;7803;48.130;13.788;2023-08-24T13:05:29;7.30;;;6.80;;
15408;SDS011;7803;48.130;13.788;2023-08-24T13:08:31;7.00;;;6.50;;
15408;SDS011;7803;48.130;13.788;2023-08-24T13:11:34;6.82;;;6.32;;
15408;SDS011;7803;48.130;13.788;2023-08-24T13:14:36;7.90;;;7.20;;
15408;SDS011;7803;48.130;13.788;2023-08-24T13:17:38;6.82;;;6.32;;
15408;SDS011;7803;48.130;13.788;2023-08-24T13:20:40;7.13;;;6.63;;
15408;SDS011;7803;48.130;13.788;2023-08-24T13:23:42;7.22;;;6.63;;
15408;SDS011;7803;48.130;13.788;2023-08-24T13:26:46;7.05;;;6.53;;
15408;SDS011;7803;48.130;13.788;2023-08-24T13:29:48;7.03;;;6.53;;
15408;SDS011;7803;48.130;13.788;2023-08-24T13:32:50;7.38;;;6.78;;
15408;SDS011;7803;48.130;13.788;2023-08-24T13:35:52;6.93;;;6.43;;
15408;SDS011;7803;48.130;13.788;2023-08-24T13:38:54;7.10;;;6.57;;
15408;SDS011;7803;48.130;13.788;2023-08-24T13:41:57;7.20;;;6.70;;
15408;SDS011;7803;48.130;13.788;2023-08-24T13:44:59;7.32;;;6.72;;
15408;SDS011;7803;48.130;13.788;2023-08-24T13:48:01;7.53;;;6.93;;
15408;SDS011;7803;48.130;13.788;2023-08-24T13:51:04;6.88;;;6.38;;
15408;SDS011;7803;48.130;13.788;2023-08-24T13:54:13;7.10;;;6.60;;
15408;SDS011;7803;48.130;13.788;2023-08-24T13:57:17;7.43;;;6.88;;
15408;SDS011;7803;48.130;13.788;2023-08-24T14:00:19;6.68;;;6.18;;
15408;SDS011;7803;48.130;13.788;2023-08-24T14:03:23;7.00;;;6.50;;
15408;SDS011;7803;48.130;13.788;2023-08-24T14:06:27;6.78;;;6.28;;
15408;SDS011;7803;48.130;13.788;2023-08-24T14:09:29;7.22;;;6.63;;
15408;SDS011;7803;48.130;13.788;2023-08-24T14:12:34;7.18;;;6.68;;
15408;SDS011;7803;48.130;13.788;2023-08-24T14:15:36;7.47;;;6.88;;
15408;SDS011;7803;48.130;13.788;2023-08-24T14:18:38;6.65;;;6.15;;
15408;SDS011;7803;48.130;13.788;2023-08-24T14:21:40;6.80;;;6.30;;
15408;SDS011;7803;48.130;13.788;2023-08-24T14:24:42;7.35;;;6.72;;
15408;SDS011;7803;48.130;13.788;2023-08-24T14:27:45;6.78;;;6.28;;
15408;SDS011;7803;48.130;13.788;2023-08-24T14:30:47;6.97;;;6.47;;
15408;SDS011;7803;48.130;13.788;2023-08-24T14:33:50;6.88;;;6.38;;
15408;SDS011;7803;48.130;13.788;2023-08-24T14:36:53;6.90;;;6.40;;
15408;SDS011;7803;48.130;13.788;2023-08-24T14:39:55;7.05;;;6.55;;
15408;SDS011;7803;48.130;13.788;2023-08-24T14:42:58;6.80;;;6.30;;
15408;SDS011;7803;48.130;13.788;2023-08-24T14:46:00;7.05;;;6.55;;
15408;SDS011;7803;48.130;13.788;2023-08-24T14:49:02;7.10;;;6.50;;
15408;SDS011;7803;48.130;13.788;2023-08-24T14:52:04;7.07;;;6.50;;
15408;SDS011;7803;48.130;13.788;2023-08-24T14:55:07;7.05;;;6.45;;
15408;SDS011;7803;48.130;13.788;2023-08-24T14:58:11;6.60;;;6.10;;
15408;SDS011;7803;48.130;13.788;2023-08-24T15:01:13;7.47;;;6.88;;
15408;SDS011;7803;48.130;13.788;2023-08-24T15:04:16;7.25;;;6.65;;
15408;SDS011;7803;48.130;13.788;2023-08-24T15:07:18;6.90;;;6.25;;
15408;SDS011;7803;48.130;13.788;2023-08-24T15:10:20;6.82;;;6.30;;
15408;SDS011;7803;48.130;13.788;2023-08-24T15:13:24;6.53;;;6.03;;
15408;SDS011;7803;48.130;13.788;2023-08-24T15:16:26;6.65;;;6.15;;
15408;SDS011;7803;48.130;13.788;2023-08-24T15:19:28;6.78;;;6.28;;
15408;SDS011;7803;48.130;13.788;2023-08-24T15:22:30;6.68;;;6.18;;
15408;SDS011;7803;48.130;13.788;2023-08-24T15:25:32;7.05;;;6.45;;
15408;SDS011;7803;48.130;13.788;2023-08-24T15:28:36;7.22;;;6.63;;
15408;SDS011;7803;48.130;13.788;2023-08-24T15:31:58;6.68;;;6.18;;
15408;SDS011;7803;48.130;13.788;2023-08-24T15:35:01;7.50;;;6.90;;
15408;SDS011;7803;48.130;13.788;2023-08-24T15:38:05;6.53;;;6.03;;
15408;SDS011;7803;48.130;13.788;2023-08-24T15:41:07;6.47;;;5.97;;
15408;SDS011;7803;48.130;13.788;2023-08-24T15:44:11;6.30;;;5.90;;
15408;SDS011;7803;48.130;13.788;2023-08-24T15:47:13;6.82;;;6.28;;
15408;SDS011;7803;48.130;13.788;2023-08-24T15:50:15;6.97;;;6.47;;
15408;SDS011;7803;48.130;13.788;2023-08-24T15:53:17;6.70;;;6.20;;
15408;SDS011;7803;48.130;13.788;2023-08-24T15:56:18;6.60;;;6.10;;
15408;SDS011;7803;48.130;13.788;2023-08-24T15:59:22;6.57;;;6.07;;
15408;SDS011;7803;48.130;13.788;2023-08-24T16:02:24;6.70;;;6.20;;
15408;SDS011;7803;48.130;13.788;2023-08-24T16:05:26;6.53;;;6.03;;
15408;SDS011;7803;48.130;13.788;2023-08-24T16:08:28;6.85;;;6.35;;
15408;SDS011;7803;48.130;13.788;2023-08-24T16:11:30;7.20;;;6.70;;
15408;SDS011;7803;48.130;13.788;2023-08-24T16:14:33;6.57;;;5.93;;
15408;SDS011;7803;48.130;13.788;2023-08-24T16:17:35;6.15;;;5.75;;
15408;SDS011;7803;48.130;13.788;2023-08-24T16:20:37;6.93;;;6.43;;
15408;SDS011;7803;48.130;13.788;2023-08-24T16:23:39;6.88;;;6.30;;
15408;SDS011;7803;48.130;13.788;2023-08-24T16:26:42;6.60;;;5.97;;
15408;SDS011;7803;48.130;13.788;2023-08-24T16:29:46;6.75;;;6.25;;
15408;SDS011;7803;48.130;13.788;2023-08-24T16:32:48;6.90;;;6.30;;
15408;SDS011;7803;48.130;13.788;2023-08-24T16:35:50;6.82;;;6.20;;
15408;SDS011;7803;48.130;13.788;2023-08-24T16:38:52;12.45;;;7.72;;
15408;SDS011;7803;48.130;13.788;2023-08-24T16:41:54;17.98;;;11.32;;
15408;SDS011;7803;48.130;13.788;2023-08-24T16:44:57;29.73;;;14.32;;
15408;SDS011;7803;48.130;13.788;2023-08-24T16:47:59;46.50;;;17.98;;
15408;SDS011;7803;48.130;13.788;2023-08-24T16:51:02;41.92;;;18.92;;
15408;SDS011;7803;48.130;13.788;2023-08-24T16:54:04;41.28;;;17.92;;
15408;SDS011;7803;48.130;13.788;2023-08-24T16:57:06;31.80;;;15.82;;
15408;SDS011;7803;48.130;13.788;2023-08-24T17:00:11;28.40;;;13.50;;
15408;SDS011;7803;48.130;13.788;2023-08-24T17:03:14;22.33;;;12.75;;
15408;SDS011;7803;48.130;13.788;2023-08-24T17:06:16;27.20;;;13.07;;
15408;SDS011;7803;48.130;13.788;2023-08-24T17:09:19;21.98;;;12.50;;
15408;SDS011;7803;48.130;13.788;2023-08-24T17:12:21;19.98;;;11.73;;
15408;SDS011;7803;48.130;13.788;2023-08-24T17:15:24;23.20;;;12.05;;
15408;SDS011;7803;48.130;13.788;2023-08-24T17:18:26;18.90;;;11.45;;
15408;SDS011;7803;48.130;13.788;2023-08-24T17:21:29;21.48;;;11.60;;
15408;SDS011;7803;48.130;13.788;2023-08-24T17:24:32;23.67;;;12.00;;
15408;SDS011;7803;48.130;13.788;2023-08-24T17:27:35;18.48;;;11.38;;
15408;SDS011;7803;48.130;13.788;2023-08-24T17:30:44;18.15;;;11.18;;
15408;SDS011;7803;48.130;13.788;2023-08-24T17:33:47;18.98;;;11.10;;
15408;SDS011;7803;48.130;13.788;2023-08-24T17:36:50;17.10;;;10.68;;
15408;SDS011;7803;48.130;13.788;2023-08-24T17:39:52;19.63;;;11.23;;
15408;SDS011;7803;48.130;13.788;2023-08-24T17:42:55;16.27;;;10.43;;
15408;SDS011;7803;48.130;13.788;2023-08-24T17:45:59;18.20;;;10.85;;
15408;SDS011;7803;48.130;13.788;2023-08-24T17:49:04;18.13;;;10.98;;
15408;SDS011;7803;48.130;13.788;2023-08-24T17:52:07;17.13;;;10.73;;
15408;SDS011;7803;48.130;13.788;2023-08-24T17:55:10;17.98;;;10.75;;
15408;SDS011;7803;48.130;13.788;2023-08-24T17:58:14;17.48;;;10.48;;
15408;SDS011;7803;48.130;13.788;2023-08-24T18:01:19;18.75;;;10.48;;
15408;SDS011;7803;48.130;13.788;2023-08-24T18:04:22;14.90;;;10.38;;
15408;SDS011;7803;48.130;13.788;2023-08-24T18:07:26;15.10;;;10.20;;
15408;SDS011;7803;48.130;13.788;2023-08-24T18:10:29;14.73;;;10.25;;
15408;SDS011;7803;48.130;13.788;2023-08-24T18:13:33;16.40;;;9.95;;
15408;SDS011;7803;48.130;13.788;2023-08-24T18:16:39;15.07;;;9.32;;
15408;SDS011;7803;48.130;13.788;2023-08-24T18:19:42;15.57;;;9.80;;